• Join FlightAware (Why Join?)
  • Login
  • US Flag 
04:56AM EDT


 

Airport Tracker/Info


-or-


 

Live Flight TrackerFlight Track Log ✈ N30NY ✈ 05-Oct-2013 ✈ KHTO - KJRA

Flight Track Log - Related Links

Times and Time Zones

All times are in EDT time to prevent confusion due to time zone crossing. See the N30NY flight status page for this flight to view local times or setup timezone preferences in your user account.

Time Position Orientation Groundspeed Altitude Reporting Facility
EDT Latitude Longitude Course Direction KTS MPH feet Rate Location/Type
04:46PM 41.0167 -72.4000 270° West 159 183 1,900  Level New York TRACON
04:47PM 41.0167 -72.4500 270° West 152 175 1,900  Level New York TRACON
04:48PM 41.0167 -72.5167 270° West 154 177 1,900  Level New York TRACON
04:49PM 41.0167 -72.5667 270° West 155 178 1,900  Level New York TRACON
04:50PM 41.0000 -72.6167 246° West 154 177 1,900  Level New York TRACON
04:51PM 41.0000 -72.6833 270° West 155 178 1,900  Level New York TRACON
04:52PM 41.0000 -72.7333 270° West 151 174 1,900  Level New York TRACON
04:53PM 41.0000 -72.7833 270° West 154 177 1,900  Level New York TRACON
04:54PM 41.0000 -72.8500 270° West 154 177 1,900  Level New York TRACON
04:55PM 41.0000 -72.9000 270° West 156 180 1,900  Level New York TRACON
04:56PM 40.9833 -72.9667 252° West 157 181 1,900  Level New York TRACON
04:57PM 40.9833 -73.0167 270° West 157 181 1,900  Level New York TRACON
04:58PM 40.9833 -73.0667 270° West 155 178 1,900  Level New York TRACON
04:59PM 40.9833 -73.1333 270° West 154 177 1,900  Level New York TRACON
05:00PM 40.9833 -73.1833 270° West 155 178 1,900  Level New York TRACON
05:01PM 40.9667 -73.2500 252° West 154 177 1,900  Level New York TRACON
05:02PM 40.9667 -73.3000 270° West 153 176 1,900  Level New York TRACON
05:03PM 40.9667 -73.3667 270° West 154 177 1,900  Level New York TRACON
05:04PM 40.9667 -73.4167 270° West 153 176 1,900  Level New York TRACON
05:05PM 40.9500 -73.4667 246° West 156 180 1,900  Level New York TRACON
05:06PM 40.9500 -73.5167 270° West 152 175 1,900  Level New York TRACON
05:07PM 40.9167 -73.5667 229° Southwest 149 171 1,900  Level New York TRACON
05:08PM 40.9000 -73.6167 246° West 148 170 1,900  Level New York TRACON
05:09PM 40.8667 -73.6500 217° Southwest 148 170 1,900  Level New York TRACON
05:10PM 40.8500 -73.7000 246° West 148 170 1,900  Level New York TRACON
05:11PM 40.8167 -73.7500 229° Southwest 149 171 1,900  Level New York TRACON
05:12PM 40.8000 -73.8000 246° West 148 170 1,900  Level New York TRACON
05:13PM 40.7833 -73.8500 246° West 150 173 1,900 -180 Level New York TRACON
05:14PM 40.7667 -73.9000 246° West 147 169 1,600 -240 Descending New York TRACON
05:15PM 40.7833 -73.9500 294° West 145 167 1,500 -120 Descending New York TRACON
05:17PM 40.7500 -74.0000 258° West  Level FlightAware Approximate
05:24PM 40.7546 -74.0071 258° West  Level Estimated
05:25PM 40.7500 -74.0000 258° West  Level FlightAware Approximate
05:26PM 40.7546 -74.0071 258° West  Level Estimated
05:27PM 40.7500 -74.0000 258° West  Level FlightAware Approximate
05:28PM 40.7546 -74.0071 258° West  Level Estimated
05:29PM 40.7500 -74.0000 258° West  Level FlightAware Approximate
05:30PM 40.7546 -74.0071 258° West  Level Estimated
05:31PM 40.7500 -74.0000 258° West  Level FlightAware Approximate
05:32PM 40.7546 -74.0071 258° West  Level Estimated
05:33PM 40.7500 -74.0000 258° West  Level FlightAware Approximate